createdAt,value
2023-07-25T00:01:44.094Z,4.43
2023-07-25T00:04:10.945Z,4.10
2023-07-25T00:06:37.686Z,5.00
2023-07-25T00:09:05.760Z,3.70
2023-07-25T00:11:32.768Z,3.73
2023-07-25T00:13:59.880Z,3.87
2023-07-25T00:16:26.850Z,4.00
2023-07-25T00:18:53.636Z,3.80
2023-07-25T00:21:20.462Z,5.10
2023-07-25T00:23:47.221Z,4.20
2023-07-25T00:26:15.337Z,5.40
2023-07-25T00:28:42.183Z,4.10
2023-07-25T00:31:09.310Z,3.80
2023-07-25T00:33:36.016Z,4.37
2023-07-25T00:36:02.985Z,4.57
2023-07-25T00:38:29.772Z,5.30
2023-07-25T00:40:56.511Z,4.70
2023-07-25T00:43:24.588Z,5.07
2023-07-25T00:45:51.750Z,4.73
2023-07-25T00:48:18.560Z,5.17
2023-07-25T00:50:45.368Z,5.43
2023-07-25T00:53:14.031Z,4.90
2023-07-25T00:55:41.094Z,5.57
2023-07-25T00:58:07.978Z,4.70
2023-07-25T01:00:37.889Z,6.00
2023-07-25T01:03:05.030Z,5.30
2023-07-25T01:05:35.758Z,5.80
2023-07-25T01:08:02.883Z,5.70
2023-07-25T01:10:29.616Z,4.00
2023-07-25T01:12:56.348Z,5.73
2023-07-25T01:15:23.213Z,5.00
2023-07-25T01:17:51.967Z,5.80
2023-07-25T01:20:19.274Z,5.27
2023-07-25T01:22:47.264Z,5.30
2023-07-25T01:25:15.372Z,5.80
2023-07-25T01:27:42.402Z,5.30
2023-07-25T01:30:09.961Z,4.50
2023-07-25T01:32:36.912Z,5.17
2023-07-25T01:35:04.234Z,3.90
2023-07-25T01:37:30.991Z,4.10
2023-07-25T01:39:57.731Z,4.03
2023-07-25T01:42:25.814Z,4.70
2023-07-25T01:44:52.612Z,3.70
2023-07-25T01:47:19.338Z,3.80
2023-07-25T01:49:46.093Z,3.67
2023-07-25T01:52:12.906Z,4.10
2023-07-25T01:54:39.699Z,3.80
2023-07-25T01:57:07.165Z,3.57
2023-07-25T01:59:35.340Z,3.73
2023-07-25T02:02:02.218Z,4.00
2023-07-25T02:04:29.021Z,3.90
2023-07-25T02:06:55.791Z,4.37
2023-07-25T02:09:22.542Z,4.17
2023-07-25T02:11:49.368Z,3.80
2023-07-25T02:14:16.291Z,3.40
2023-07-25T02:16:44.582Z,4.90
2023-07-25T02:19:11.436Z,3.47
2023-07-25T02:21:38.208Z,2.77
2023-07-25T02:24:05.444Z,3.20
2023-07-25T02:26:32.243Z,3.13
2023-07-25T02:28:59.024Z,3.00
2023-07-25T02:31:25.836Z,3.50
2023-07-25T02:33:54.742Z,2.83
2023-07-25T02:36:21.521Z,4.07
2023-07-25T02:38:48.263Z,3.33
2023-07-25T02:41:15.008Z,3.10
2023-07-25T02:43:41.719Z,3.20
2023-07-25T02:46:08.534Z,3.37
2023-07-25T02:48:35.326Z,3.67
2023-07-25T02:51:03.529Z,3.47
2023-07-25T02:53:30.303Z,3.03
2023-07-25T02:55:57.030Z,2.10
2023-07-25T02:58:23.870Z,2.57
2023-07-25T03:00:51.158Z,2.83
2023-07-25T03:03:18.003Z,2.70
2023-07-25T03:05:44.880Z,3.50
2023-07-25T03:08:12.996Z,3.30
2023-07-25T03:10:40.125Z,3.70
2023-07-25T03:13:06.888Z,2.90
2023-07-25T03:15:33.596Z,3.23
2023-07-25T03:18:00.382Z,3.20
2023-07-25T03:20:27.280Z,3.33
2023-07-25T03:22:54.086Z,3.60
2023-07-25T03:25:22.241Z,3.57
2023-07-25T03:27:49.024Z,2.97
2023-07-25T03:30:15.833Z,2.90
2023-07-25T03:32:42.619Z,2.57
2023-07-25T03:35:09.522Z,2.40
2023-07-25T03:37:36.258Z,2.90
2023-07-25T03:40:03.121Z,3.90
2023-07-25T03:42:31.211Z,3.47
2023-07-25T03:44:57.965Z,2.40
2023-07-25T03:47:24.831Z,3.30
2023-07-25T03:49:51.655Z,3.70
2023-07-25T03:52:18.417Z,2.30
2023-07-25T03:54:45.145Z,2.90
2023-07-25T03:57:11.940Z,2.63
2023-07-25T03:59:40.041Z,3.60
2023-07-25T04:02:06.892Z,2.90
2023-07-25T04:04:33.697Z,3.20
2023-07-25T04:07:00.557Z,3.03
2023-07-25T04:09:27.390Z,3.10
2023-07-25T04:11:54.140Z,3.17
2023-07-25T04:14:20.887Z,2.93
2023-07-25T04:16:48.946Z,2.70
2023-07-25T04:19:16.263Z,3.30
2023-07-25T04:21:43.086Z,3.10
2023-07-25T04:24:09.852Z,4.27
2023-07-25T04:26:36.644Z,3.43
2023-07-25T04:29:03.443Z,2.40
2023-07-25T04:31:30.603Z,2.17
2023-07-25T04:33:58.992Z,3.40
2023-07-25T04:36:25.822Z,3.03
2023-07-25T04:38:52.590Z,2.90
2023-07-25T04:41:19.333Z,2.63
2023-07-25T04:43:46.058Z,3.80
2023-07-25T04:46:12.844Z,3.13
2023-07-25T04:48:39.758Z,3.27
2023-07-25T04:51:07.855Z,3.57
2023-07-25T04:53:35.181Z,3.20
2023-07-25T04:56:01.928Z,2.70
2023-07-25T04:58:29.190Z,3.37
2023-07-25T05:00:55.934Z,3.50
2023-07-25T05:03:22.802Z,2.90
2023-07-25T05:05:51.992Z,2.30
2023-07-25T05:08:20.106Z,2.83
2023-07-25T05:10:46.840Z,3.30
2023-07-25T05:13:13.657Z,3.13
2023-07-25T05:15:40.473Z,2.13
2023-07-25T05:18:07.231Z,3.30
2023-07-25T05:20:34.013Z,2.80
2023-07-25T05:23:00.870Z,2.70
2023-07-25T05:25:28.928Z,2.87
2023-07-25T05:27:55.739Z,3.20
2023-07-25T05:30:22.493Z,3.10
2023-07-25T05:32:49.593Z,3.30
2023-07-25T05:35:16.882Z,3.23
2023-07-25T05:37:43.683Z,3.60
2023-07-25T05:40:10.638Z,2.63
2023-07-25T05:42:38.732Z,2.07
2023-07-25T05:45:06.768Z,4.57
2023-07-25T05:47:33.502Z,4.60
2023-07-25T05:50:00.313Z,4.03
2023-07-25T05:52:27.073Z,3.87
2023-07-25T05:54:53.811Z,4.10
2023-07-25T05:57:20.630Z,3.80
2023-07-25T05:59:48.738Z,5.30
2023-07-25T06:02:15.896Z,4.27
2023-07-25T06:04:42.613Z,4.50
2023-07-25T06:07:09.434Z,4.10
2023-07-25T06:09:36.238Z,4.17
2023-07-25T06:12:03.112Z,3.53
2023-07-25T06:14:29.921Z,4.00
2023-07-25T06:16:58.048Z,4.00
2023-07-25T06:19:24.778Z,3.70
2023-07-25T06:21:51.647Z,4.57
2023-07-25T06:24:19.934Z,3.60
2023-07-25T06:26:46.898Z,4.23
2023-07-25T06:29:13.625Z,3.97
2023-07-25T06:31:40.493Z,4.50
2023-07-25T06:34:08.577Z,3.80
2023-07-25T06:36:35.350Z,4.77
2023-07-25T06:39:02.116Z,4.70
2023-07-25T06:41:29.031Z,3.53
2023-07-25T06:43:55.952Z,3.60
2023-07-25T06:46:22.754Z,4.07
2023-07-25T06:48:49.508Z,3.67
2023-07-25T06:51:17.731Z,4.00
2023-07-25T06:53:44.469Z,3.27
2023-07-25T06:56:11.202Z,3.47
2023-07-25T06:58:37.947Z,3.20
2023-07-25T07:01:04.720Z,3.83
2023-07-25T07:03:31.908Z,3.47
2023-07-25T07:05:58.776Z,2.80
2023-07-25T07:08:26.984Z,3.13
2023-07-25T07:10:54.196Z,3.27
2023-07-25T07:13:21.071Z,4.67
2023-07-25T07:15:48.498Z,3.00
2023-07-25T07:18:15.491Z,2.90
2023-07-25T07:20:46.363Z,3.27
2023-07-25T07:23:13.126Z,3.20
2023-07-25T07:25:41.299Z,3.53
2023-07-25T07:28:08.176Z,3.30
2023-07-25T07:30:35.074Z,3.20
2023-07-25T07:33:01.935Z,3.03
2023-07-25T07:35:28.716Z,2.53
2023-07-25T07:37:55.442Z,2.90
2023-07-25T07:40:22.219Z,2.50
2023-07-25T07:42:50.333Z,3.23
2023-07-25T07:45:17.188Z,3.30
2023-07-25T07:47:43.977Z,2.57
2023-07-25T07:50:10.961Z,2.67
2023-07-25T07:52:42.483Z,2.23
2023-07-25T07:55:11.350Z,3.30
2023-07-25T07:57:42.719Z,2.70
2023-07-25T08:00:13.154Z,2.93
2023-07-25T08:02:40.276Z,2.10
2023-07-25T08:05:07.918Z,2.60
2023-07-25T08:07:34.833Z,2.80
2023-07-25T08:10:01.727Z,2.83
2023-07-25T08:12:28.637Z,2.40
2023-07-25T08:14:55.414Z,2.20
2023-07-25T08:17:23.568Z,2.20
2023-07-25T08:19:50.378Z,2.43
2023-07-25T08:22:17.411Z,2.30
2023-07-25T08:24:44.218Z,2.70
2023-07-25T08:27:11.078Z,2.37
2023-07-25T08:29:40.062Z,2.53
2023-07-25T08:32:08.296Z,2.17
2023-07-25T08:34:36.467Z,2.10
2023-07-25T08:37:03.676Z,2.53
2023-07-25T08:39:30.419Z,2.33
2023-07-25T08:41:59.105Z,2.43
2023-07-25T08:44:27.661Z,2.97
2023-07-25T08:46:55.988Z,2.20
2023-07-25T08:49:24.456Z,2.83
2023-07-25T08:51:53.967Z,2.30
2023-07-25T08:54:27.959Z,3.03
2023-07-25T08:56:55.334Z,2.90
2023-07-25T08:59:23.298Z,2.30
2023-07-25T09:01:50.521Z,2.27
2023-07-25T09:04:17.933Z,2.70
2023-07-25T09:06:44.701Z,2.53
2023-07-25T09:09:12.973Z,1.93
2023-07-25T09:11:39.753Z,1.90
2023-07-25T09:14:06.471Z,2.33
2023-07-25T09:16:33.895Z,2.00
2023-07-25T09:19:01.061Z,2.20
2023-07-25T09:21:28.530Z,2.17
2023-07-25T09:23:56.648Z,3.13
2023-07-25T09:26:26.894Z,1.80
2023-07-25T09:28:56.608Z,2.40
2023-07-25T09:31:27.172Z,2.37
2023-07-25T09:33:55.605Z,2.33
2023-07-25T09:36:24.092Z,2.40
2023-07-25T09:38:51.756Z,2.90
2023-07-25T09:41:19.524Z,2.80
2023-07-25T09:43:47.678Z,2.70
2023-07-25T09:46:14.541Z,2.33
2023-07-25T09:48:44.207Z,2.20
2023-07-25T09:51:11.784Z,2.07
2023-07-25T09:53:38.792Z,2.20
2023-07-25T09:56:06.597Z,3.10
2023-07-25T09:58:34.203Z,2.37
2023-07-25T10:01:03.565Z,2.23
2023-07-25T10:03:30.492Z,2.30
2023-07-25T10:05:57.917Z,2.50
2023-07-25T10:08:26.263Z,2.20
2023-07-25T10:10:54.677Z,1.97
2023-07-25T10:13:21.620Z,1.70
2023-07-25T10:15:49.260Z,2.33
2023-07-25T10:18:22.663Z,1.83
2023-07-25T10:20:49.758Z,2.37
2023-07-25T10:23:16.858Z,1.80
2023-07-25T10:25:43.857Z,1.90
2023-07-25T10:28:12.079Z,2.53
2023-07-25T10:30:43.870Z,2.20
2023-07-25T10:33:13.550Z,2.57
2023-07-25T10:35:46.291Z,2.50
2023-07-25T10:38:15.246Z,2.90
2023-07-25T10:40:53.452Z,2.70
2023-07-25T10:43:21.088Z,2.30
2023-07-25T10:45:52.996Z,2.50
2023-07-25T10:48:35.737Z,2.70
2023-07-25T10:51:05.534Z,2.30
2023-07-25T10:53:32.301Z,2.37
2023-07-25T10:56:15.857Z,2.70
2023-07-25T10:59:08.578Z,2.50
2023-07-25T11:01:38.463Z,2.40
2023-07-25T11:04:21.917Z,2.50
2023-07-25T11:06:50.906Z,1.90
2023-07-25T11:09:17.924Z,2.00
2023-07-25T11:11:45.435Z,2.27
2023-07-25T11:14:13.801Z,1.90
2023-07-25T11:16:41.775Z,1.83
2023-07-25T11:19:09.665Z,1.90
2023-07-25T11:21:38.362Z,1.80
2023-07-25T11:24:09.353Z,3.07
2023-07-25T11:26:36.555Z,2.60
2023-07-25T11:29:04.703Z,1.87
2023-07-25T11:31:31.853Z,3.23
2023-07-25T11:34:08.219Z,2.00
2023-07-25T11:36:37.056Z,1.53
2023-07-25T11:39:04.009Z,1.93
2023-07-25T11:41:32.685Z,2.10
2023-07-25T11:43:59.627Z,1.40
2023-07-25T11:46:27.440Z,1.97
2023-07-25T11:48:55.017Z,1.93
2023-07-25T11:51:22.208Z,1.53
2023-07-25T11:53:49.093Z,1.90
2023-07-25T11:56:16.012Z,1.40
2023-07-25T11:58:48.875Z,1.80
2023-07-25T12:01:15.672Z,1.43
2023-07-25T12:03:47.109Z,1.73
2023-07-25T12:06:14.010Z,2.00
2023-07-25T12:08:42.894Z,2.03
2023-07-25T12:11:11.769Z,2.10
2023-07-25T12:13:46.625Z,1.50
2023-07-25T12:16:30.670Z,2.13
2023-07-25T12:18:59.480Z,2.10
2023-07-25T12:21:28.451Z,1.90
2023-07-25T12:23:57.275Z,1.87
2023-07-25T12:26:24.231Z,1.50
2023-07-25T12:28:52.094Z,2.13
2023-07-25T12:31:19.286Z,1.80
2023-07-25T12:33:50.064Z,1.93
2023-07-25T12:36:18.359Z,1.77
2023-07-25T12:38:47.473Z,1.73
2023-07-25T12:41:14.677Z,2.00
2023-07-25T12:43:41.566Z,1.60
2023-07-25T12:46:12.081Z,1.40
2023-07-25T12:48:38.887Z,1.80
2023-07-25T12:51:07.131Z,1.60
2023-07-25T12:53:33.928Z,1.47
2023-07-25T12:56:00.804Z,1.60
2023-07-25T12:58:27.661Z,1.83
2023-07-25T13:00:54.825Z,1.60
2023-07-25T13:03:25.738Z,1.67
2023-07-25T13:05:53.113Z,1.90
2023-07-25T13:08:21.436Z,2.13
2023-07-25T13:10:48.475Z,1.70
2023-07-25T13:13:15.962Z,2.00
2023-07-25T13:15:43.464Z,1.50
2023-07-25T13:18:10.443Z,1.97
2023-07-25T13:20:37.577Z,1.83
2023-07-25T13:23:04.421Z,1.83
2023-07-25T13:25:32.543Z,1.90
2023-07-25T13:27:59.317Z,1.70
2023-07-25T13:30:26.082Z,2.33
2023-07-25T13:32:52.943Z,2.40
2023-07-25T13:35:19.971Z,1.63
2023-07-25T13:37:46.752Z,1.53
2023-07-25T13:40:13.677Z,1.67
2023-07-25T13:42:41.810Z,1.97
2023-07-25T13:45:11.976Z,1.77
2023-07-25T13:47:38.783Z,1.80
2023-07-25T13:50:06.255Z,2.03
2023-07-25T13:52:32.993Z,1.97
2023-07-25T13:54:59.756Z,1.50
2023-07-25T13:57:32.817Z,1.80
2023-07-25T14:00:01.785Z,2.50
2023-07-25T14:02:28.632Z,2.17
2023-07-25T14:04:55.460Z,1.87
2023-07-25T14:07:22.214Z,2.10
2023-07-25T14:09:48.958Z,2.30
2023-07-25T14:12:15.710Z,1.70
2023-07-25T14:14:42.555Z,2.20
2023-07-25T14:17:10.628Z,1.90
2023-07-25T14:19:37.441Z,2.40
2023-07-25T14:22:04.584Z,2.00
2023-07-25T14:24:31.388Z,2.23
2023-07-25T14:26:58.165Z,2.10
2023-07-25T14:29:25.485Z,1.53
2023-07-25T14:31:52.210Z,2.27
2023-07-25T14:34:20.388Z,2.10
2023-07-25T14:36:47.119Z,1.77
2023-07-25T14:39:13.856Z,2.30
2023-07-25T14:41:40.681Z,1.90
2023-07-25T14:44:07.399Z,2.13
2023-07-25T14:46:34.875Z,1.77
2023-07-25T14:49:02.039Z,1.90
2023-07-25T14:51:30.149Z,2.33
2023-07-25T14:53:56.988Z,1.67
2023-07-25T14:56:23.815Z,2.00
2023-07-25T14:58:50.593Z,2.07
2023-07-25T15:01:17.355Z,2.00
2023-07-25T15:03:44.115Z,2.27
2023-07-25T15:06:10.840Z,1.90
2023-07-25T15:08:38.927Z,2.90
2023-07-25T15:11:06.172Z,1.63
2023-07-25T15:13:33.014Z,1.80
2023-07-25T15:15:59.788Z,1.50
2023-07-25T15:18:26.586Z,1.40
2023-07-25T15:20:53.718Z,1.70
2023-07-25T15:23:20.520Z,1.70
2023-07-25T15:25:48.676Z,2.03
2023-07-25T15:28:15.406Z,2.30
2023-07-25T15:30:42.260Z,2.07
2023-07-25T15:33:09.243Z,2.97
2023-07-25T15:35:36.164Z,2.47
2023-07-25T15:38:03.017Z,2.00
2023-07-25T15:40:29.782Z,1.97
2023-07-25T15:42:57.875Z,1.40
2023-07-25T15:45:24.612Z,1.70
2023-07-25T15:47:51.511Z,1.77
2023-07-25T15:50:18.316Z,1.70
2023-07-25T15:52:45.037Z,1.60
2023-07-25T15:55:11.842Z,1.93
2023-07-25T15:57:40.059Z,1.63
2023-07-25T16:00:09.870Z,2.20
2023-07-25T16:02:36.908Z,2.10
2023-07-25T16:05:04.126Z,1.83
2023-07-25T16:07:33.714Z,2.60
2023-07-25T16:10:02.095Z,2.37
2023-07-25T16:12:28.862Z,2.10
2023-07-25T16:14:55.583Z,2.20
2023-07-25T16:17:23.733Z,2.03
2023-07-25T16:19:50.461Z,1.60
2023-07-25T16:22:17.353Z,1.30
2023-07-25T16:24:44.274Z,1.80
2023-07-25T16:27:11.028Z,1.77
2023-07-25T16:29:37.851Z,1.90
2023-07-25T16:32:05.209Z,1.87
2023-07-25T16:34:33.324Z,1.70
2023-07-25T16:37:00.157Z,1.73
2023-07-25T16:39:27.264Z,1.33
2023-07-25T16:41:54.265Z,2.07
2023-07-25T16:44:21.232Z,1.50
2023-07-25T16:46:48.065Z,1.30
2023-07-25T16:49:15.019Z,1.80
2023-07-25T16:51:43.071Z,1.87
2023-07-25T16:54:09.837Z,2.00
2023-07-25T16:56:36.624Z,1.10
2023-07-25T16:59:03.417Z,1.27
2023-07-25T17:01:31.268Z,1.20
2023-07-25T17:03:58.360Z,1.10
2023-07-25T17:06:25.251Z,1.80
2023-07-25T17:08:53.320Z,1.10
2023-07-25T17:11:20.118Z,0.90
2023-07-25T17:13:46.867Z,1.83
2023-07-25T17:16:13.744Z,1.83
2023-07-25T17:18:40.521Z,1.40
2023-07-25T17:21:07.689Z,1.20
2023-07-25T17:23:34.584Z,1.90
2023-07-25T17:26:03.069Z,1.43
2023-07-25T17:28:29.793Z,1.00
2023-07-25T17:30:57.050Z,1.07
2023-07-25T17:33:24.020Z,1.43
2023-07-25T17:35:50.827Z,1.63
2023-07-25T17:38:17.581Z,1.27
2023-07-25T17:40:44.548Z,1.30
2023-07-25T17:43:12.735Z,1.67
2023-07-25T17:45:39.474Z,1.27
2023-07-25T17:48:06.717Z,1.20
2023-07-25T17:50:33.674Z,1.93
2023-07-25T17:53:00.421Z,1.30
2023-07-25T17:55:27.247Z,1.40
2023-07-25T17:57:53.987Z,1.63
2023-07-25T18:00:22.187Z,1.30
2023-07-25T18:02:49.345Z,1.33
2023-07-25T18:05:16.355Z,1.20
2023-07-25T18:07:43.155Z,1.03
2023-07-25T18:10:10.538Z,0.80
2023-07-25T18:12:37.418Z,1.20
2023-07-25T18:15:05.222Z,1.50
2023-07-25T18:17:33.455Z,1.53
2023-07-25T18:20:00.293Z,1.40
2023-07-25T18:22:27.175Z,1.30
2023-07-25T18:24:53.961Z,1.43
2023-07-25T18:27:20.741Z,1.40
2023-07-25T18:29:47.532Z,1.07
2023-07-25T18:32:14.319Z,1.37
2023-07-25T18:34:42.684Z,1.50
2023-07-25T18:37:09.413Z,1.20
2023-07-25T18:39:36.145Z,1.10
2023-07-25T18:42:03.025Z,1.03
2023-07-25T18:44:29.829Z,1.30
2023-07-25T18:46:56.670Z,1.40
2023-07-25T18:49:23.524Z,1.40
2023-07-25T18:51:51.594Z,1.30
2023-07-25T18:54:18.324Z,1.20
2023-07-25T18:56:45.091Z,1.70
2023-07-25T18:59:11.972Z,1.63
2023-07-25T19:01:38.804Z,1.37
2023-07-25T19:04:05.533Z,1.77
2023-07-25T19:06:32.917Z,1.43
2023-07-25T19:09:01.161Z,1.50
2023-07-25T19:11:27.934Z,1.30
2023-07-25T19:13:54.776Z,1.67
2023-07-25T19:16:21.660Z,1.20
2023-07-25T19:18:48.465Z,1.20
2023-07-25T19:21:15.502Z,1.47
2023-07-25T19:23:42.260Z,1.57
2023-07-25T19:26:11.484Z,2.20
2023-07-25T19:28:38.278Z,1.77
2023-07-25T19:31:05.201Z,2.00
2023-07-25T19:33:33.431Z,1.73
2023-07-25T19:36:00.403Z,1.60
2023-07-25T19:38:28.336Z,2.60
2023-07-25T19:40:55.265Z,2.10
2023-07-25T19:43:23.494Z,1.90
2023-07-25T19:45:53.451Z,1.80
2023-07-25T19:48:20.236Z,1.70
2023-07-25T19:50:47.171Z,1.80
2023-07-25T19:53:14.717Z,2.40
2023-07-25T19:55:41.693Z,3.33
2023-07-25T19:58:08.646Z,4.10
2023-07-25T20:00:37.445Z,4.63
2023-07-25T20:03:04.421Z,3.80
2023-07-25T20:05:31.389Z,4.17
2023-07-25T20:07:58.161Z,4.40
2023-07-25T20:10:24.952Z,3.70
2023-07-25T20:12:51.821Z,2.90
2023-07-25T20:15:19.770Z,3.30
2023-07-25T20:17:48.631Z,2.03
2023-07-25T20:20:15.492Z,2.30
2023-07-25T20:22:42.640Z,2.60
2023-07-25T20:25:09.659Z,2.00
2023-07-25T20:27:36.514Z,2.33
2023-07-25T20:30:03.685Z,2.10
2023-07-25T20:32:30.579Z,1.60
2023-07-25T20:34:58.825Z,1.60
2023-07-25T20:37:25.591Z,1.73
2023-07-25T20:39:53.334Z,2.20
2023-07-25T20:42:20.170Z,1.80
2023-07-25T20:44:46.979Z,2.00
2023-07-25T20:47:13.790Z,1.70
2023-07-25T20:49:40.565Z,1.97
2023-07-25T20:52:09.022Z,1.53
2023-07-25T20:54:35.836Z,2.20
2023-07-25T20:57:02.639Z,2.47
2023-07-25T20:59:29.379Z,1.93
2023-07-25T21:01:56.198Z,1.77
2023-07-25T21:04:22.958Z,1.33
2023-07-25T21:06:49.797Z,1.80
2023-07-25T21:09:17.882Z,1.57
2023-07-25T21:11:44.610Z,1.40
2023-07-25T21:14:11.380Z,1.97
2023-07-25T21:16:38.199Z,1.60
2023-07-25T21:19:05.027Z,1.87
2023-07-25T21:21:31.952Z,1.97
2023-07-25T21:23:58.854Z,2.00
2023-07-25T21:26:26.968Z,1.67
2023-07-25T21:28:53.753Z,1.50
2023-07-25T21:31:20.604Z,2.03
2023-07-25T21:33:47.424Z,2.03
2023-07-25T21:36:14.743Z,1.33
2023-07-25T21:38:42.719Z,1.40
2023-07-25T21:41:11.398Z,1.90
2023-07-25T21:43:39.495Z,1.73
2023-07-25T21:46:06.566Z,1.40
2023-07-25T21:48:33.412Z,1.50
2023-07-25T21:51:00.874Z,1.50
2023-07-25T21:53:28.917Z,2.10
2023-07-25T21:55:55.738Z,1.90
2023-07-25T21:58:23.341Z,3.60
2023-07-25T22:00:51.456Z,2.87
2023-07-25T22:03:18.417Z,2.50
2023-07-25T22:05:45.420Z,2.43
2023-07-25T22:08:12.348Z,2.50
2023-07-25T22:10:39.118Z,2.23
2023-07-25T22:13:05.895Z,1.60
2023-07-25T22:15:32.712Z,2.20
2023-07-25T22:18:00.915Z,1.77
2023-07-25T22:20:32.053Z,1.30
2023-07-25T22:23:05.385Z,1.63
2023-07-25T22:25:32.237Z,1.97
2023-07-25T22:27:58.985Z,1.80
2023-07-25T22:30:25.707Z,1.40
2023-07-25T22:32:52.508Z,2.33
2023-07-25T22:35:20.832Z,1.20
2023-07-25T22:37:58.871Z,1.67
2023-07-25T22:40:25.616Z,1.37
2023-07-25T22:42:52.375Z,1.87
2023-07-25T22:45:19.243Z,1.90
2023-07-25T22:47:46.040Z,1.67
2023-07-25T22:50:12.806Z,1.63
2023-07-25T22:52:41.080Z,1.97
2023-07-25T22:55:08.631Z,1.77
2023-07-25T22:57:35.389Z,1.43
2023-07-25T23:00:02.703Z,2.00
2023-07-25T23:02:29.567Z,1.63
2023-07-25T23:04:56.789Z,2.00
2023-07-25T23:07:23.532Z,1.70
2023-07-25T23:09:51.643Z,2.20
2023-07-25T23:12:18.491Z,2.20
2023-07-25T23:14:45.340Z,1.40
2023-07-25T23:17:12.092Z,1.90
2023-07-25T23:19:38.841Z,1.50
2023-07-25T23:22:05.733Z,1.70
2023-07-25T23:24:32.552Z,1.90
2023-07-25T23:27:00.678Z,2.50
2023-07-25T23:29:27.442Z,1.50
2023-07-25T23:31:54.217Z,1.97
2023-07-25T23:34:20.994Z,1.47
2023-07-25T23:36:47.752Z,2.07
2023-07-25T23:39:14.516Z,2.50
2023-07-25T23:41:41.319Z,2.27
2023-07-25T23:44:09.540Z,2.40
2023-07-25T23:46:36.439Z,1.63
2023-07-25T23:49:03.312Z,2.43
2023-07-25T23:51:30.150Z,1.90
2023-07-25T23:53:56.880Z,1.90
2023-07-25T23:56:23.764Z,2.10
2023-07-25T23:58:50.596Z,2.17
